• Join FlightAware (Why Join?)
  • Login
  • US Flag 
11:33PM EST


 

Airport Tracker/Info


-or-


 

Live Flight TrackerFlight Track Log ✈ JBU917 ✈ 2013年05月 5日 ✈ KJFK - KORD

Flight Track Log - Related Links

Times and Time Zones

All times are in EDT time to prevent confusion due to time zone crossing. See the JBU917 flight status page for this flight to view local times or setup timezone preferences in your user account.

Time Position Orientation Groundspeed Altitude Reporting Facility
EDT Latitude Longitude Course Direction KTS MPH feet Rate Location/Type
09:03PM 40.6167 -73.7000 62° Northeast 189 217 3,500  Level New York TRACON
09:04PM 40.6500 -73.6167 62° Northeast 250 288 5,500 2,500 Climbing New York TRACON
09:05PM 40.7000 -73.5333 52° Northeast 284 327 8,500 2,650 Climbing New York TRACON
09:06PM 40.7667 -73.5500 349° North 303 349 10,800 2,050 Climbing New York TRACON
09:07PM 40.8667 -73.5833 346° North 355 409 12,600 2,200 Climbing New York TRACON
09:08PM 40.9333 -73.6667 317° Northwest 359 413 15,200 1,725 Climbing New York TRACON
09:10PM 41.0300 -73.8408 306° West 383 441 17,000 701 Climbing New York Center
09:11PM 41.0494 -73.9764 281° West 368 423 17,000  Level New York Center
09:12PM 41.0644 -74.1092 279° West 374 430 17,000 645 Level New York Center
09:13PM 41.0817 -74.2339 280° West 379 436 18,300 1,537 Climbing New York Center
09:14PM 41.0964 -74.3669 278° West 379 436 20,100 1,780 Climbing New York Center
09:15PM 41.1147 -74.5164 279° West 387 445 21,800 1,525 Climbing New York Center
09:16PM 41.1350 -74.6636 280° West 402 463 23,100 1,438 Climbing New York Center
09:17PM 41.1864 -74.8044 296° West 408 470 24,700 2,164 Climbing New York Center
09:18PM 41.2478 -74.9544 299° West 422 486 27,500 1,650 Climbing New York Center
09:19PM 41.3000 -75.0708 301° West 422 486 28,000 615 Climbing New York Center
09:20PM 41.3575 -75.2072 299° West 422 486 28,700 1,150 Climbing New York Center
09:21PM 41.4167 -75.3467 300° West 435 501 30,300 1,289 Climbing New York Center
09:22PM 41.4739 -75.4833 299° West 435 501 31,300 793 Climbing New York Center
09:23PM 41.5214 -75.6475 291° West 430 495 31,900 1,438 Climbing New York Center
09:24PM 41.5617 -75.7753 293° West 424 488 34,200 1,475 Climbing New York Center
09:25PM 41.5994 -75.9167 290° West 418 481 34,800 559 Climbing New York Center
09:26PM 41.6411 -76.0614 291° West 418 481 35,300 496 Climbing New York Center
09:27PM 41.6822 -76.2064 291° West 418 481 35,800 350 Climbing New York Center
09:28PM 41.7233 -76.3542 290° West 418 481 36,000 100 Climbing New York Center
09:29PM 41.7675 -76.5219 289° West 418 481 36,000  Level New York Center
09:30PM 41.8103 -76.6703 291° West 424 488 36,000  Level New York Center
09:32PM 41.8881 -76.9486 291° West 442 509 36,000  Level Cleveland Center
09:33PM 41.9281 -77.0969 290° West 442 509 36,000  Level Cleveland Center
09:34PM 41.9678 -77.2456 290° West 434 499 36,000  Level Cleveland Center
09:35PM 42.0075 -77.3944 290° West 434 499 36,000  Level Cleveland Center
09:36PM 42.0469 -77.5436 290° West 429 494 36,000  Level Cleveland Center
09:37PM 42.0864 -77.6956 289° West 429 494 36,000  Level Cleveland Center
09:38PM 42.1253 -77.8422 290° West 424 488 36,000  Level Cleveland Center
09:39PM 42.1642 -77.9919 289° West 419 482 36,000  Level Cleveland Center
09:40PM 42.2031 -78.1389 290° West 419 482 36,000  Level Cleveland Center
09:41PM 42.2436 -78.2889 290° West 419 482 36,000  Level Cleveland Center
09:42PM 42.2819 -78.4419 289° West 424 488 36,000  Level Cleveland Center
09:43PM 42.3200 -78.5922 289° West 424 488 36,000  Level Cleveland Center
09:44PM 42.3600 -78.7456 289° West 424 488 36,000  Level Cleveland Center
09:45PM 42.3981 -78.9019 288° West 429 494 36,000  Level Cleveland Center
09:46PM 42.4378 -79.0583 289° West 435 501 36,000  Level Cleveland Center
09:47PM 42.4772 -79.2122 289° West 440 506 36,000  Level Cleveland Center
09:48PM 42.4978 -79.3781 280° West 435 501 36,000  Level Cleveland Center
09:49PM 42.5033 -79.5383 273° West 435 501 36,000  Level Cleveland Center
09:50PM 42.5153 -79.7044 276° West 435 501 36,000  Level Cleveland Center
09:51PM 42.5225 -79.8706 273° West 440 506 36,000  Level Cleveland Center
09:52PM 42.5256 -80.0478 271° West 440 506 36,000  Level Cleveland Center
09:53PM 42.5347 -80.2142 274° West 445 512 36,000  Level Cleveland Center
09:54PM 42.5433 -80.3775 274° West 439 505 36,000  Level Cleveland Center
09:55PM 42.5478 -80.5325 272° West 439 505 36,000  Level Cleveland Center
09:56PM 42.5539 -80.6931 273° West 432 497 36,000  Level Cleveland Center
09:57PM 42.5600 -80.8567 273° West 427 491 36,000  Level Cleveland Center
09:58PM 42.5656 -81.0144 273° West 427 491 36,000  Level Cleveland Center
09:59PM 42.5711 -81.1781 273° West 439 505 36,000  Level Cleveland Center
10:00PM 42.5764 -81.3444 273° West 439 505 36,000  Level Cleveland Center
10:01PM 42.5919 -81.5053 278° West 439 505 36,000  Level Cleveland Center
10:02PM 42.6219 -81.6639 284° West 433 498 36,000  Level Cleveland Center
10:03PM 42.6475 -81.8167 283° West 433 498 36,000  Level Cleveland Center
10:04PM 42.6747 -81.9783 283° West 427 491 36,000  Level Cleveland Center
10:05PM 42.7019 -82.1369 283° West 433 498 36,000  Level Cleveland Center
10:06PM 42.7308 -82.2989 284° West 433 498 36,000  Level Cleveland Center
10:07PM 42.7556 -82.4608 282° West 433 498 36,000  Level Cleveland Center
10:08PM 42.7714 -82.6225 278° West 433 498 36,000  Level Cleveland Center
10:09PM 42.7850 -82.7869 276° West 433 498 36,000  Level Cleveland Center
10:10PM 42.7922 -82.9542 273° West 439 505 36,000 -100 Level Cleveland Center
10:11PM 42.8033 -83.1189 275° West 444 511 35,800 -850 Descending Cleveland Center
10:12PM 42.8142 -83.2833 275° West 444 511 34,300 -1,550 Descending Cleveland Center
10:13PM 42.8225 -83.4508 274° West 444 511 32,700 -1,600 Descending Cleveland Center
10:14PM 42.8328 -83.6211 275° West 444 511 31,100 -1,350 Descending Cleveland Center
10:15PM 42.8428 -83.7944 275° West 449 517 30,000 -550 Descending Cleveland Center
10:16PM 42.8522 -83.9678 274° West 454 522 30,000  Level Cleveland Center
10:18PM 42.8714 -84.3128 274° West 460 529 30,000  Level Chicago Center
10:19PM 42.8789 -84.4867 273° West 461 531 30,000  Level Chicago Center
10:20PM 42.8761 -84.6608 269° West 463 533 30,000  Level Chicago Center
10:21PM 42.8581 -84.8336 262° West 460 529 30,000  Level Chicago Center
10:22PM 42.8394 -85.0042 262° West 458 527 30,000  Level Chicago Center
10:23PM 42.8217 -85.1753 262° West 458 527 30,000  Level Chicago Center
10:24PM 42.8028 -85.3481 262° West 459 528 30,000 -590 Level Chicago Center
10:25PM 42.7775 -85.5564 261° West 462 532 28,800 -1,721 Descending Chicago Center
10:26PM 42.7453 -85.7261 256° West 461 531 26,500 -2,195 Descending Chicago Center
10:27PM 42.7144 -85.8911 256° West 452 520 24,300 -2,049 Descending Chicago Center
10:28PM 42.6861 -86.0533 257° West 442 509 22,300 -1,820 Descending Chicago Center
10:29PM 42.6581 -86.2092 256° West 428 493 20,600 -1,131 Descending Chicago Center
10:30PM 42.6275 -86.3608 255° West 417 480 20,000 -293 Descending Chicago Center
10:31PM 42.5997 -86.5136 256° West 417 480 20,000 -195 Level Chicago Center
10:32PM 42.5681 -86.6831 256° West 417 480 19,600 -1,279 Descending Chicago Center
10:33PM 42.5331 -86.8297 252° West 412 474 17,400 -2,164 Descending Chicago Center
10:34PM 42.4981 -86.9556 249° West 402 463 15,200 -2,311 Descending Chicago Center
10:35PM 42.4603 -87.0894 249° West 384 442 12,700 -2,410 Descending Chicago Center
10:36PM 42.4269 -87.2192 251° West 369 425 10,300 -1,328 Descending Chicago Center
10:37PM 42.3919 -87.3419 249° West 354 407 10,000 -146 Descending Chicago Center
10:38PM 42.3547 -87.4750 249° West 354 407 10,000  Level Chicago Center
10:39PM 42.2992 -87.5756 233° Southwest 347 399 10,000  Level Chicago Center
10:40PM 42.2097 -87.6697 218° Southwest 343 395 10,000  Level Chicago Center
10:41PM 42.1350 -87.7497 218° Southwest 345 397 10,000  Level Chicago Center
10:42PM 42.0906 -87.8561 241° Southwest 347 399 10,000  Level Chicago Center
10:43PM 42.0833 -87.9000 258° West 321 369 10,000 -1,352 Level Chicago TRACON
10:43PM 42.0500 -87.9833 242° Southwest 299 344 8,400 -1,722 Descending Chicago TRACON
10:44PM 42.0500 -88.0833 270° West 284 327 6,900 -1,768 Descending Chicago TRACON
10:45PM 42.0528 -88.1697 273° West 281 323 5,100 -1,462 Descending Chicago Center
10:46PM 42.0203 -88.2506 242° Southwest 282 325 4,000 -541 Descending Chicago Center
10:47PM 41.9806 -88.1908 132° Southeast 245 282 4,000 -347 Level Chicago Center
10:48PM 41.9667 -88.1000 102° East 188 216 3,300 -857 Descending Chicago TRACON
10:49PM 41.9667 -88.0333 90° East 171 197 2,200 -893 Descending Chicago TRACON
10:50PM 41.9667 -87.9833 90° East 130 150 1,500 -678 Descending Chicago TRACON
10:51PM 41.9667 -87.9333 90° East 134 154 900 -600 Descending Chicago TRACON